Time;durP1;ratioP1;P1;durP2;ratioP2;P2;SDS_P1;SDS_P2;PMS_P1;PMS_P2;Temp;Humidity;BMP_temperature;BMP_pressure;BME280_temperature;BME280_humidity;BME280_pressure;Samples;Min_cycle;Max_cycle;Signal;HPM_P1;HPM_P2
2022/12/31 00:00:37;;;;;;;1.5;1.4;;;;;;;9.22;76.37988;939.3613;;;;
2022/12/31 00:03:10;;;;;;;2.8;2.6;;;;;;;9.27;76.60449;939.3604;;;;
2022/12/31 00:05:41;;;;;;;2.2;1.8;;;;;;;9.38;75.75977;939.3367;;;;
2022/12/31 00:08:07;;;;;;;15;9.7;;;;;;;9.44;74.27734;939.4476;;;;
2022/12/31 00:10:47;;;;;;;2;1.1;;;;;;;9.44;74.7666;939.3817;;;;
2022/12/31 00:13:28;;;;;;;1.6;1.2;;;;;;;9.52;74.62012;939.3589;;;;
2022/12/31 00:16:05;;;;;;;2;1.3;;;;;;;9.55;75.11621;939.3881;;;;
2022/12/31 00:18:33;;;;;;;1.7;1.3;;;;;;;9.49;74.59277;939.4467;;;;
2022/12/31 00:21:10;;;;;;;1.5;1.4;;;;;;;9.5;75.14063;939.5375;;;;
2022/12/31 00:23:57;;;;;;;2.2;1.9;;;;;;;9.53;74.06641;939.546;;;;
2022/12/31 00:26:27;;;;;;;2.1;1.5;;;;;;;9.61;73.94238;939.4886;;;;
2022/12/31 00:28:56;;;;;;;1.7;1.2;;;;;;;9.59;74.30371;939.5183;;;;
2022/12/31 00:31:26;;;;;;;1.4;1.3;;;;;;;9.7;73.44434;939.3954;;;;
2022/12/31 00:33:51;;;;;;;2.9;1.9;;;;;;;9.71;73.52637;939.4838;;;;
2022/12/31 00:36:16;;;;;;;4.3;3.5;;;;;;;9.82;73.12305;939.4911;;;;
2022/12/31 00:38:42;;;;;;;6.6;5.5;;;;;;;9.75;74.61523;939.5598;;;;
2022/12/31 00:41:07;;;;;;;4.6;3.2;;;;;;;9.4;77.08398;939.6192;;;;
2022/12/31 00:43:32;;;;;;;8;4.3;;;;;;;9.18;78.78516;939.7082;;;;
2022/12/31 00:45:57;;;;;;;5;3.6;;;;;;;8.95;80.37988;939.6364;;;;
2022/12/31 00:48:22;;;;;;;3.8;3.1;;;;;;;8.96;80.65625;939.759;;;;
2022/12/31 00:50:50;;;;;;;5.7;3.8;;;;;;;8.99;80.64063;939.7461;;;;
2022/12/31 00:53:15;;;;;;;4.3;3.3;;;;;;;8.95;80.82324;939.7952;;;;
2022/12/31 00:55:43;;;;;;;6;3.8;;;;;;;8.92;81.03613;939.7274;;;;
2022/12/31 00:58:09;;;;;;;6.9;4.6;;;;;;;8.93;80.78613;939.7783;;;;
2022/12/31 01:00:36;;;;;;;3.1;2.3;;;;;;;8.97;79.59961;939.972;;;;
2022/12/31 01:03:01;;;;;;;4.4;3.5;;;;;;;9.08;79.49512;939.8653;;;;
2022/12/31 01:05:26;;;;;;;3.8;2.6;;;;;;;9.06;78.90918;939.9437;;;;
2022/12/31 01:07:51;;;;;;;3.4;2.4;;;;;;;9.09;79.47168;940.0482;;;;
2022/12/31 01:13:19;;;;;;;4;3;;;;;;;9.08;80.09766;940.1442;;;;
2022/12/31 01:15:50;;;;;;;3.3;1.9;;;;;;;9.04;80.47656;940.1204;;;;
2022/12/31 01:18:17;;;;;;;3.5;1.9;;;;;;;9.04;80.70605;940.2142;;;;
2022/12/31 01:20:42;;;;;;;1.8;1.7;;;;;;;9.17;80.05762;940.2006;;;;
2022/12/31 01:23:09;;;;;;;4.9;2.5;;;;;;;9.11;80.45605;940.3552;;;;
2022/12/31 01:25:34;;;;;;;1.9;1.3;;;;;;;8.99;81.69824;940.3719;;;;
2022/12/31 01:28:00;;;;;;;1;0.9;;;;;;;9.03;80.10059;940.4738;;;;
2022/12/31 01:32:50;;;;;;;1.5;1.4;;;;;;;9.29;79.33984;940.3809;;;;
2022/12/31 01:35:19;;;;;;;1.1;1;;;;;;;9.2;79.8125;940.4363;;;;
2022/12/31 01:37:44;;;;;;;1.5;1.1;;;;;;;9.09;80.65723;940.5122;;;;
2022/12/31 01:40:10;;;;;;;1.3;0.8;;;;;;;8.97;81.55664;940.4763;;;;
2022/12/31 01:42:38;;;;;;;2.3;0.9;;;;;;;8.9;82.70313;940.5068;;;;
2022/12/31 01:45:05;;;;;;;0.7;0.7;;;;;;;8.9;83.41992;940.5369;;;;
2022/12/31 01:47:30;;;;;;;1.2;0.8;;;;;;;8.74;83.54785;940.4977;;;;
2022/12/31 01:49:57;;;;;;;0.7;0.7;;;;;;;8.89;82.03027;940.4899;;;;
2022/12/31 01:52:28;;;;;;;0.7;0.6;;;;;;;8.96;81.31445;940.5444;;;;
2022/12/31 01:54:56;;;;;;;0.7;0.7;;;;;;;9.06;80.64063;940.6507;;;;
2022/12/31 01:57:21;;;;;;;0.8;0.8;;;;;;;9.03;79.95313;940.5898;;;;
2022/12/31 01:59:48;;;;;;;0.7;0.7;;;;;;;9.21;79.22363;940.5783;;;;
2022/12/31 02:02:13;;;;;;;1.2;0.8;;;;;;;9.2;79.41602;940.6239;;;;
2022/12/31 02:04:41;;;;;;;0.8;0.8;;;;;;;9.06;79.96973;940.7286;;;;
2022/12/31 02:07:40;;;;;;;0.7;0.7;;;;;;;9.07;80.11914;940.7651;;;;
2022/12/31 02:10:05;;;;;;;1;0.9;;;;;;;8.95;80.1084;940.8278;;;;
2022/12/31 02:12:30;;;;;;;1.1;0.9;;;;;;;8.87;80.63965;940.6777;;;;
2022/12/31 02:14:57;;;;;;;1.5;1.1;;;;;;;8.79;81.14551;940.9187;;;;
2022/12/31 02:17:22;;;;;;;1.7;0.9;;;;;;;8.94;80.50293;940.802;;;;
2022/12/31 02:19:47;;;;;;;1.8;1.5;;;;;;;8.93;80.52441;940.8099;;;;
2022/12/31 02:22:13;;;;;;;2;1;;;;;;;8.94;80.56152;940.8784;;;;
2022/12/31 02:24:39;;;;;;;1.4;1.2;;;;;;;8.89;80.88184;940.9353;;;;
2022/12/31 02:27:04;;;;;;;1.2;0.9;;;;;;;8.97;80.6123;940.9233;;;;
2022/12/31 02:29:30;;;;;;;1.1;1;;;;;;;9.03;80.62305;940.9319;;;;
2022/12/31 02:31:58;;;;;;;1;0.9;;;;;;;8.98;80.70508;940.7846;;;;
2022/12/31 02:34:23;;;;;;;1.2;1;;;;;;;8.96;80.50879;940.7732;;;;
2022/12/31 02:36:48;;;;;;;2.3;1;;;;;;;9.02;79.89258;940.7555;;;;
2022/12/31 02:39:13;;;;;;;1.3;0.9;;;;;;;9.21;78.8584;940.7495;;;;
2022/12/31 02:41:52;;;;;;;1.1;1;;;;;;;9.24;78.88574;940.7448;;;;
2022/12/31 02:44:11;;;;;;;1.8;1.5;;;;;;;9.31;78.24023;940.7103;;;;
2022/12/31 02:46:36;;;;;;;3.1;2;;;;;;;9.27;78.97168;940.8169;;;;
2022/12/31 02:49:01;;;;;;;2.5;1.6;;;;;;;9.27;79.23535;940.7796;;;;
2022/12/31 02:51:26;;;;;;;1.1;1;;;;;;;9.23;79.83008;940.8345;;;;
2022/12/31 02:53:52;;;;;;;0.7;0.6;;;;;;;9.25;80.25684;940.8158;;;;
2022/12/31 02:56:17;;;;;;;1.8;1.5;;;;;;;9.13;80.08496;940.8967;;;;
2022/12/31 03:04:32;;;;;;;0.9;0.8;;;;;;;9.07;81.07324;940.947;;;;
2022/12/31 03:06:35;;;;;;;0.8;0.8;;;;;;;8.89;82.37207;940.9512;;;;
2022/12/31 03:09:14;;;;;;;0.6;0.5;;;;;;;9.06;82.01563;940.9222;;;;
2022/12/31 03:13:56;;;;;;;1.2;0.8;;;;;;;9.05;82.16406;940.9889;;;;
2022/12/31 03:16:21;;;;;;;1.3;0.9;;;;;;;9.19;81.7002;940.9406;;;;
2022/12/31 03:23:49;;;;;;;2;1.1;;;;;;;8.96;82.78418;940.9955;;;;
2022/12/31 03:26:10;;;;;;;1;1;;;;;;;8.95;83.12305;941.0081;;;;
2022/12/31 03:28:37;;;;;;;1.4;1.1;;;;;;;8.93;83.30176;941.0442;;;;
2022/12/31 03:31:02;;;;;;;3.8;2.2;;;;;;;8.77;84.27148;940.9797;;;;
2022/12/31 03:33:27;;;;;;;3.1;1.9;;;;;;;;;;;;;
2022/12/31 03:35:52;;;;;;;1.9;1.6;;;;;;;;;;;;;
2022/12/31 03:38:17;;;;;;;1.6;1.3;;;;;;;;;;;;;
2022/12/31 03:40:42;;;;;;;2.8;1.9;;;;;;;;;;;;;
2022/12/31 03:43:09;;;;;;;2.4;1.9;;;;;;;;;;;;;
2022/12/31 03:45:35;;;;;;;2.5;1.9;;;;;;;;;;;;;
2022/12/31 03:48:00;;;;;;;2.2;1.5;;;;;;;;;;;;;
2022/12/31 03:50:25;;;;;;;1.5;1.2;;;;;;;;;;;;;
2022/12/31 03:52:53;;;;;;;1.2;1.1;;;;;;;;;;;;;
2022/12/31 03:55:18;;;;;;;2.4;1.4;;;;;;;;;;;;;
2022/12/31 03:57:43;;;;;;;2.5;1.6;;;;;;;;;;;;;
2022/12/31 04:02:31;;;;;;;3.1;1.5;;;;;;;8.49;87.03418;940.8146;;;;
2022/12/31 04:04:56;;;;;;;1.1;1;;;;;;;8.52;86.72168;940.8254;;;;
2022/12/31 04:07:25;;;;;;;1.9;1.2;;;;;;;8.69;85.73438;940.8073;;;;
2022/12/31 04:09:50;;;;;;;1.6;1.2;;;;;;;8.78;85.2168;940.7352;;;;
2022/12/31 04:12:18;;;;;;;1.4;1.2;;;;;;;8.79;85.04785;940.8759;;;;
2022/12/31 04:15:16;;;;;;;1.2;1.1;;;;;;;8.79;85.07031;940.8791;;;;
2022/12/31 04:17:41;;;;;;;1.4;1;;;;;;;8.65;85.64648;940.962;;;;
2022/12/31 04:20:10;;;;;;;1.7;1.3;;;;;;;8.53;86.33691;941.0337;;;;
2022/12/31 04:22:35;;;;;;;1.5;1.3;;;;;;;8.59;86.25879;940.9255;;;;
2022/12/31 04:25:04;;;;;;;1.4;1.1;;;;;;;8.69;85.74609;940.8136;;;;
2022/12/31 04:27:28;;;;;;;1.8;1.3;;;;;;;8.73;85.39941;940.892;;;;
2022/12/31 04:29:54;;;;;;;1.5;1.3;;;;;;;8.63;85.80957;940.9861;;;;
2022/12/31 04:32:19;;;;;;;1.7;1.3;;;;;;;8.61;86.0127;941.0508;;;;
2022/12/31 04:34:45;;;;;;;1.6;1.1;;;;;;;8.56;86.28613;941.1359;;;;
2022/12/31 04:37:10;;;;;;;2;1.2;;;;;;;8.48;86.54199;941.2452;;;;
2022/12/31 04:39:38;;;;;;;1.4;1.3;;;;;;;8.43;86.81738;941.3077;;;;
2022/12/31 04:45:43;;;;;;;1.3;1.1;;;;;;;8.31;87.62109;941.34;;;;
2022/12/31 04:48:14;;;;;;;1.3;1.2;;;;;;;8.22;88.2627;941.2874;;;;
2022/12/31 04:50:43;;;;;;;1.5;1.4;;;;;;;8.16;88.71582;941.4084;;;;
2022/12/31 04:53:08;;;;;;;1.9;1.4;;;;;;;8.09;89.37207;941.3848;;;;
2022/12/31 04:55:37;;;;;;;1.5;1.4;;;;;;;8.2;88.89355;941.4649;;;;
2022/12/31 04:58:02;;;;;;;1.8;1.3;;;;;;;8.25;88.46191;941.4014;;;;
2022/12/31 05:00:29;;;;;;;2.5;1.3;;;;;;;8.27;88.3291;941.4986;;;;
2022/12/31 05:02:54;;;;;;;1.5;1.4;;;;;;;8.21;88.77246;941.4838;;;;
2022/12/31 05:05:22;;;;;;;1.7;1.6;;;;;;;8.24;88.61914;941.4734;;;;
2022/12/31 05:07:47;;;;;;;2.1;1.4;;;;;;;8.28;88.41016;941.483;;;;
2022/12/31 05:10:17;;;;;;;1.3;1.2;;;;;;;8.24;88.95898;941.4012;;;;
2022/12/31 05:12:47;;;;;;;1.8;1.3;;;;;;;8.19;89.29102;941.4086;;;;
2022/12/31 05:15:22;;;;;;;1.2;1.1;;;;;;;8.27;88.77148;941.4376;;;;
2022/12/31 05:17:51;;;;;;;1.9;1.5;;;;;;;8.22;89.28516;941.3405;;;;
2022/12/31 05:20:23;;;;;;;2.7;1.5;;;;;;;8.18;89.57324;941.4423;;;;
2022/12/31 05:22:52;;;;;;;1.6;1.5;;;;;;;8.21;89.47656;941.5125;;;;
2022/12/31 05:25:17;;;;;;;1.9;1.4;;;;;;;8.18;89.3457;941.5511;;;;
2022/12/31 05:27:46;;;;;;;2.2;1.4;;;;;;;8.21;89.44238;941.6869;;;;
2022/12/31 05:30:17;;;;;;;2.3;1.7;;;;;;;8.19;89.4834;941.6719;;;;
2022/12/31 05:32:42;;;;;;;3.5;2.4;;;;;;;8.11;90.19141;941.6325;;;;
2022/12/31 05:35:30;;;;;;;2.5;1.8;;;;;;;8.02;90.84277;941.5836;;;;
2022/12/31 05:38:06;;;;;;;2.5;2;;;;;;;7.92;91.24316;941.7483;;;;
2022/12/31 05:40:35;;;;;;;3.2;1.9;;;;;;;7.97;91.00293;941.6195;;;;
2022/12/31 05:43:00;;;;;;;5.3;3.2;;;;;;;7.97;90.76465;941.5837;;;;
2022/12/31 05:45:31;;;;;;;5.9;2.7;;;;;;;7.9;91.30566;941.7175;;;;
2022/12/31 05:48:04;;;;;;;5.6;2.9;;;;;;;8.05;90.46387;941.8256;;;;
2022/12/31 05:50:29;;;;;;;7;4.4;;;;;;;8.03;90.22168;941.875;;;;
2022/12/31 05:53:20;;;;;;;8.7;5.2;;;;;;;7.94;90.46387;941.8868;;;;
2022/12/31 05:55:45;;;;;;;10.8;5.8;;;;;;;7.88;91.31543;941.8044;;;;
2022/12/31 05:58:14;;;;;;;6.6;4;;;;;;;7.86;91.24121;941.7944;;;;
2022/12/31 06:00:39;;;;;;;4.8;3.4;;;;;;;7.82;91.33594;941.8164;;;;
2022/12/31 06:03:04;;;;;;;4.3;3.1;;;;;;;7.78;91.76855;941.8912;;;;
2022/12/31 06:05:31;;;;;;;5.8;3.8;;;;;;;7.82;91.46973;941.8987;;;;
2022/12/31 06:07:56;;;;;;;5.3;3.6;;;;;;;7.79;91.33008;941.8828;;;;
2022/12/31 06:10:22;;;;;;;6.9;4.4;;;;;;;7.8;91.23926;941.9074;;;;
2022/12/31 06:12:50;;;;;;;7.6;4.6;;;;;;;7.76;91.15234;941.9327;;;;
2022/12/31 06:15:15;;;;;;;7.9;4.5;;;;;;;7.77;90.81543;941.9425;;;;
2022/12/31 06:22:46;;;;;;;6.6;3.7;;;;;;;7.61;91.09668;942.0024;;;;
2022/12/31 06:25:11;;;;;;;5.8;3.4;;;;;;;7.58;91.5332;941.8515;;;;
2022/12/31 06:27:39;;;;;;;5.6;4.1;;;;;;;7.59;91.46484;941.8898;;;;
2022/12/31 06:30:04;;;;;;;5.3;3.6;;;;;;;7.58;91.3291;941.8801;;;;
2022/12/31 06:32:31;;;;;;;5;2.5;;;;;;;7.55;91.53711;941.7603;;;;
2022/12/31 06:34:56;;;;;;;4;2.6;;;;;;;7.46;91.5293;941.8975;;;;
2022/12/31 06:37:26;;;;;;;3.2;2;;;;;;;7.52;91.57617;941.8127;;;;
2022/12/31 06:41:09;;;;;;;4.5;2.5;;;;;;;7.5;91.13086;941.8074;;;;
2022/12/31 06:43:33;;;;;;;6;3.3;;;;;;;7.46;91.62012;941.8206;;;;
2022/12/31 06:46:00;;;;;;;6.3;4.2;;;;;;;7.52;91.20215;941.8324;;;;
2022/12/31 06:48:25;;;;;;;9.4;5.5;;;;;;;7.51;90.72461;941.8711;;;;
2022/12/31 06:50:53;;;;;;;15;8.4;;;;;;;7.52;90.70313;941.8792;;;;
2022/12/31 06:53:19;;;;;;;19.7;10.6;;;;;;;7.45;90.49707;941.8893;;;;
2022/12/31 06:55:44;;;;;;;21.1;11.9;;;;;;;7.39;90.71289;941.943;;;;
2022/12/31 06:58:09;;;;;;;18.2;11.5;;;;;;;7.36;90.77344;942.0997;;;;
2022/12/31 07:00:36;;;;;;;10.1;6;;;;;;;7.45;90.29297;942.062;;;;
2022/12/31 07:03:04;;;;;;;13.8;7.7;;;;;;;7.49;89.81348;942.2558;;;;
2022/12/31 07:05:30;;;;;;;9;4.9;;;;;;;7.45;90.44043;942.2483;;;;
2022/12/31 07:07:56;;;;;;;7.3;4.4;;;;;;;7.39;90.72168;942.3152;;;;
2022/12/31 07:10:21;;;;;;;6.7;3.5;;;;;;;7.39;90.50684;942.2955;;;;
2022/12/31 07:12:51;;;;;;;5.6;3.3;;;;;;;7.4;90.80371;942.3575;;;;
2022/12/31 07:15:16;;;;;;;6.8;3.5;;;;;;;7.49;90.74316;942.3088;;;;
2022/12/31 07:17:46;;;;;;;5.7;4;;;;;;;7.46;90.69043;942.334;;;;
2022/12/31 07:20:11;;;;;;;12.5;6.4;;;;;;;7.52;90.30664;942.3189;;;;
2022/12/31 07:22:36;;;;;;;20.5;9;;;;;;;7.41;90.35156;942.2668;;;;
2022/12/31 07:25:01;;;;;;;8.2;4.2;;;;;;;7.26;90.93359;942.3948;;;;
2022/12/31 07:27:27;;;;;;;3.4;2.4;;;;;;;7.32;91.45508;942.4399;;;;
2022/12/31 07:29:52;;;;;;;4.4;3.1;;;;;;;7.45;90.89453;942.4235;;;;
2022/12/31 07:32:17;;;;;;;5.1;3;;;;;;;7.52;90.15918;942.4529;;;;
2022/12/31 07:34:42;;;;;;;5.7;2.7;;;;;;;7.64;89.68457;942.5555;;;;
2022/12/31 07:37:07;;;;;;;3.2;1.9;;;;;;;7.68;89.80762;942.6662;;;;
2022/12/31 07:39:33;;;;;;;2.6;1.6;;;;;;;7.84;89.2627;942.7333;;;;
2022/12/31 07:42:03;;;;;;;3.7;1.8;;;;;;;7.93;88.77148;942.8903;;;;
2022/12/31 07:44:32;;;;;;;3;2.2;;;;;;;7.94;88.72559;942.7651;;;;
2022/12/31 07:47:01;;;;;;;4.1;2.4;;;;;;;8.09;87.67871;942.8638;;;;
2022/12/31 07:49:28;;;;;;;3.5;2.7;;;;;;;8.19;87.4375;942.861;;;;
2022/12/31 07:51:53;;;;;;;3.9;3.5;;;;;;;8.24;87.14258;942.8078;;;;
2022/12/31 07:54:18;;;;;;;10.1;7.8;;;;;;;8.07;87.91504;942.7849;;;;
2022/12/31 07:56:47;;;;;;;11.6;8.5;;;;;;;8.15;87.98535;942.7534;;;;
2022/12/31 07:59:12;;;;;;;10.8;8;;;;;;;8.2;87.76953;942.8468;;;;
2022/12/31 08:01:37;;;;;;;10.4;6.8;;;;;;;8.18;88.01563;942.8828;;;;
2022/12/31 08:04:02;;;;;;;8;5.9;;;;;;;8.08;88.88086;942.9064;;;;
2022/12/31 08:06:29;;;;;;;7.5;5.6;;;;;;;8.07;89.33301;942.9506;;;;
2022/12/31 08:08:55;;;;;;;8.4;5.5;;;;;;;8.11;89.31934;942.9698;;;;
2022/12/31 08:11:21;;;;;;;14.7;8.1;;;;;;;7.9;90.39746;943.0251;;;;
2022/12/31 08:13:46;;;;;;;12.8;8.5;;;;;;;7.88;90.83691;942.9691;;;;
2022/12/31 08:16:11;;;;;;;11.6;8;;;;;;;7.99;90.5752;942.799;;;;
2022/12/31 08:18:37;;;;;;;13;9.2;;;;;;;7.97;90.44727;942.8494;;;;
2022/12/31 08:21:02;;;;;;;13.7;8.7;;;;;;;7.91;90.91211;942.9335;;;;
2022/12/31 08:23:28;;;;;;;10.1;7;;;;;;;7.92;90.95996;942.902;;;;
2022/12/31 08:25:54;;;;;;;9.9;6.8;;;;;;;8.09;90.45996;942.9281;;;;
2022/12/31 08:28:21;;;;;;;10.2;6.3;;;;;;;8.24;89.58398;942.9704;;;;
2022/12/31 08:30:48;;;;;;;9.7;6.1;;;;;;;8.37;88.96289;943.0215;;;;
2022/12/31 08:33:13;;;;;;;15.7;9.6;;;;;;;8.34;88.88867;943.0374;;;;
2022/12/31 08:35:39;;;;;;;18.2;11.1;;;;;;;8.35;89.11816;942.8632;;;;
2022/12/31 08:38:04;;;;;;;16.8;9.6;;;;;;;8.35;89.07422;942.9324;;;;
2022/12/31 08:40:34;;;;;;;11.6;6.9;;;;;;;8.33;89.58008;942.8925;;;;
2022/12/31 08:43:05;;;;;;;7.8;5.1;;;;;;;8.38;89.3623;942.9258;;;;
2022/12/31 08:45:36;;;;;;;6.1;3.9;;;;;;;8.46;88.94922;942.8678;;;;
2022/12/31 08:48:00;;;;;;;5.8;3.7;;;;;;;8.57;88.44922;942.9061;;;;
2022/12/31 09:01:11;;;;;;;5.3;3;;;;;;;9.12;86.16992;942.9246;;;;
2022/12/31 09:03:36;;;;;;;5.8;3.8;;;;;;;9.3;84.93164;942.9113;;;;
2022/12/31 09:09:54;;;;;;;14.2;9;;;;;;;9.55;82.81836;942.7897;;;;
2022/12/31 09:12:19;;;;;;;12.6;8;;;;;;;9.72;81.9834;942.7274;;;;
2022/12/31 09:14:47;;;;;;;22.4;12.7;;;;;;;9.93;80.97363;942.7603;;;;
2022/12/31 09:17:12;;;;;;;20.8;12;;;;;;;10.17;80.03906;942.7444;;;;
2022/12/31 09:19:37;;;;;;;15.7;10;;;;;;;10.24;80.09766;942.7941;;;;
2022/12/31 09:22:30;;;;;;;14.3;9.4;;;;;;;10.25;80.03125;942.8228;;;;
2022/12/31 09:24:55;;;;;;;12.1;8.1;;;;;;;10.22;80.91406;942.8022;;;;
2022/12/31 09:27:20;;;;;;;13.3;8.9;;;;;;;10.19;80.69238;942.755;;;;
2022/12/31 09:29:45;;;;;;;12.8;8.3;;;;;;;10.17;80.88086;942.7777;;;;
2022/12/31 09:32:10;;;;;;;11.5;7.1;;;;;;;10.32;80.20215;942.7587;;;;
2022/12/31 09:34:40;;;;;;;8.8;5.1;;;;;;;10.46;78.70898;942.7734;;;;
2022/12/31 09:37:07;;;;;;;7.9;5.6;;;;;;;10.62;78.68359;942.6362;;;;
2022/12/31 09:39:32;;;;;;;9.6;5.8;;;;;;;10.72;78.79102;942.7117;;;;
2022/12/31 09:41:57;;;;;;;8;5.5;;;;;;;10.83;78.59375;942.6675;;;;
2022/12/31 09:44:27;;;;;;;8.4;5.4;;;;;;;11;78.16992;942.6192;;;;
2022/12/31 09:46:53;;;;;;;9.2;6.4;;;;;;;10.95;78.02246;942.5994;;;;
2022/12/31 09:49:30;;;;;;;10;6.6;;;;;;;11.04;78.06152;942.5922;;;;
2022/12/31 09:51:57;;;;;;;10.8;7.1;;;;;;;10.99;78.29395;942.5353;;;;
2022/12/31 09:54:26;;;;;;;12.5;8.1;;;;;;;10.97;77.94531;942.5335;;;;
2022/12/31 09:56:55;;;;;;;14.3;8.9;;;;;;;10.98;78.33594;942.532;;;;
2022/12/31 09:59:24;;;;;;;18.9;10.7;;;;;;;10.89;78.98438;942.3945;;;;
2022/12/31 10:01:51;;;;;;;14.2;9;;;;;;;10.85;78.87305;942.5708;;;;
2022/12/31 10:04:19;;;;;;;12.5;8;;;;;;;10.94;78.34082;942.4725;;;;
2022/12/31 10:06:44;;;;;;;12;7.2;;;;;;;11.03;78.4375;942.4406;;;;
2022/12/31 10:09:15;;;;;;;18.9;10.2;;;;;;;11.05;79.4248;942.3741;;;;
2022/12/31 10:11:42;;;;;;;11.9;7.4;;;;;;;11.08;79.17676;942.3489;;;;
2022/12/31 10:14:07;;;;;;;11.1;6.8;;;;;;;11.33;78.38867;942.4131;;;;
2022/12/31 10:16:44;;;;;;;10.9;7;;;;;;;11.39;77.89844;942.3167;;;;
2022/12/31 10:19:12;;;;;;;6.3;4.2;;;;;;;11.68;74.39941;942.2299;;;;
2022/12/31 10:21:42;;;;;;;8.5;4.9;;;;;;;11.91;74.66699;942.1348;;;;
2022/12/31 10:24:10;;;;;;;4.3;3.4;;;;;;;12.08;73.47266;942.0912;;;;
2022/12/31 10:26:37;;;;;;;4.7;3.1;;;;;;;12.15;73.5293;942.1031;;;;
2022/12/31 10:29:03;;;;;;;3.9;2.7;;;;;;;12.29;73.50586;942.0511;;;;
2022/12/31 10:31:29;;;;;;;2.8;2.3;;;;;;;12.54;72.19531;941.9066;;;;
2022/12/31 10:33:54;;;;;;;2.3;1.6;;;;;;;12.7;70.21387;941.9033;;;;
2022/12/31 10:36:22;;;;;;;9.8;5.6;;;;;;;12.84;70.71777;941.7358;;;;
2022/12/31 10:42:19;;;;;;;4.7;3.5;;;;;;;13.18;68.47656;941.628;;;;
2022/12/31 10:44:44;;;;;;;6.6;4;;;;;;;13.35;66.83887;941.6267;;;;
2022/12/31 10:47:09;;;;;;;6.2;4.5;;;;;;;13.59;66.19434;941.619;;;;
2022/12/31 10:49:35;;;;;;;6.3;4.1;;;;;;;13.62;66.43066;941.5482;;;;
2022/12/31 10:52:04;;;;;;;7.1;4.3;;;;;;;13.7;67.68359;941.5724;;;;
2022/12/31 10:54:32;;;;;;;4.6;3.7;;;;;;;13.82;66.09277;941.497;;;;
2022/12/31 10:56:57;;;;;;;4.9;3.3;;;;;;;14.01;66.43164;941.5037;;;;
2022/12/31 10:59:30;;;;;;;4.2;3.2;;;;;;;14.18;66.70996;941.5402;;;;
2022/12/31 11:05:52;;;;;;;5.3;3.6;;;;;;;14.35;64.69922;941.579;;;;
2022/12/31 11:08:21;;;;;;;4;2.7;;;;;;;14.4;65.13281;941.616;;;;
2022/12/31 11:10:46;;;;;;;5.2;2.7;;;;;;;14.43;64.1582;941.6245;;;;
2022/12/31 11:13:13;;;;;;;3.1;1.8;;;;;;;14.38;65.01367;941.6223;;;;
2022/12/31 11:15:42;;;;;;;3;2;;;;;;;14.44;65.40332;941.5131;;;;
2022/12/31 11:18:08;;;;;;;3.1;2.3;;;;;;;14.62;63.89648;941.5278;;;;
2022/12/31 11:20:34;;;;;;;3;2.1;;;;;;;14.7;63.95605;941.5397;;;;
2022/12/31 11:23:01;;;;;;;3.3;2.3;;;;;;;14.87;63.60059;941.5285;;;;
2022/12/31 11:25:26;;;;;;;2.7;2;;;;;;;14.9;63.70801;941.5853;;;;
2022/12/31 11:27:56;;;;;;;4.2;2.5;;;;;;;14.97;62.56348;941.5411;;;;
2022/12/31 11:30:31;;;;;;;3.1;1.8;;;;;;;15.1;61.30273;941.493;;;;
2022/12/31 11:32:59;;;;;;;2.6;1.6;;;;;;;15.23;60.75293;941.334;;;;
2022/12/31 11:35:26;;;;;;;5.9;3.6;;;;;;;15.37;60.33594;941.2886;;;;
2022/12/31 11:37:53;;;;;;;4.2;2.7;;;;;;;15.54;59.27344;941.3395;;;;
2022/12/31 11:40:20;;;;;;;9.1;4.5;;;;;;;15.67;59.33691;941.2639;;;;
2022/12/31 11:42:46;;;;;;;4.5;2.3;;;;;;;15.8;57.71484;941.248;;;;
2022/12/31 11:45:13;;;;;;;2.2;1.7;;;;;;;15.88;56.98438;941.2043;;;;
2022/12/31 11:47:38;;;;;;;7;2;;;;;;;15.94;58.18359;941.1526;;;;
2022/12/31 11:50:03;;;;;;;5;1.6;;;;;;;16.02;57.74219;941.1071;;;;
2022/12/31 11:52:28;;;;;;;2.4;1.9;;;;;;;16.08;56.62988;941.0812;;;;
2022/12/31 11:54:56;;;;;;;5.2;2.1;;;;;;;16.18;57.39355;941.0355;;;;
2022/12/31 11:57:22;;;;;;;8;2.3;;;;;;;16.2;57.47754;941.0281;;;;
2022/12/31 11:59:47;;;;;;;4.8;1.8;;;;;;;16.23;57.52734;940.9841;;;;
2022/12/31 12:02:14;;;;;;;3.6;2.2;;;;;;;16.32;56.99414;940.9182;;;;
2022/12/31 12:04:41;;;;;;;3.4;2.7;;;;;;;16.31;56.78613;940.7825;;;;
2022/12/31 12:07:06;;;;;;;3.7;2.3;;;;;;;16.25;55.88672;940.7853;;;;
2022/12/31 12:09:32;;;;;;;2.9;2.1;;;;;;;16.27;56.29395;940.8439;;;;
2022/12/31 12:11:58;;;;;;;5.6;2;;;;;;;16.29;55.77637;940.8228;;;;
2022/12/31 12:14:23;;;;;;;2.5;2;;;;;;;16.37;55.4043;940.7683;;;;
2022/12/31 12:16:49;;;;;;;1.5;1.3;;;;;;;16.4;54.8291;940.7335;;;;
2022/12/31 12:19:14;;;;;;;2.4;1.2;;;;;;;16.5;55.4209;940.8141;;;;
2022/12/31 12:21:41;;;;;;;1.8;1.2;;;;;;;16.58;55.32813;940.6451;;;;
2022/12/31 12:24:08;;;;;;;3.8;1.4;;;;;;;16.55;55.41602;940.6544;;;;
2022/12/31 12:26:33;;;;;;;3.5;1.7;;;;;;;16.71;55.31055;940.6855;;;;
2022/12/31 12:28:58;;;;;;;2.9;1.9;;;;;;;16.69;54.9248;940.693;;;;
2022/12/31 12:31:25;;;;;;;2.5;1.6;;;;;;;16.8;53.53613;940.5775;;;;
2022/12/31 12:33:52;;;;;;;1.3;1.1;;;;;;;16.82;53.09863;940.6555;;;;
2022/12/31 12:36:21;;;;;;;4.7;1.8;;;;;;;16.93;53.51758;940.6561;;;;
2022/12/31 12:38:46;;;;;;;2.5;1.4;;;;;;;17.02;52.33594;940.6722;;;;
2022/12/31 12:41:11;;;;;;;7;1.8;;;;;;;17.04;52.37305;940.66;;;;
2022/12/31 12:43:41;;;;;;;2.2;1.7;;;;;;;16.98;52.49219;940.6209;;;;
2022/12/31 12:46:06;;;;;;;10;2.1;;;;;;;17.13;53.41406;940.6397;;;;
2022/12/31 12:48:32;;;;;;;8.5;2.2;;;;;;;17.24;53.64746;940.6378;;;;
2022/12/31 12:50:57;;;;;;;6.2;2.2;;;;;;;17.25;52.29395;940.6046;;;;
2022/12/31 12:53:22;;;;;;;11;3.3;;;;;;;17.22;52.01172;940.5784;;;;
2022/12/31 12:55:47;;;;;;;4.8;2.1;;;;;;;17.2;51.64844;940.6484;;;;
2022/12/31 12:58:12;;;;;;;10.1;3.1;;;;;;;17.2;52.78613;940.6145;;;;
2022/12/31 13:00:38;;;;;;;6.3;1.9;;;;;;;17.29;52.40137;940.5711;;;;
2022/12/31 13:03:05;;;;;;;7.3;2.1;;;;;;;17.31;52.32227;940.5516;;;;
2022/12/31 13:05:32;;;;;;;4;1.5;;;;;;;17.4;52.65918;940.4706;;;;
2022/12/31 13:07:58;;;;;;;4.4;1.5;;;;;;;17.13;52.61523;940.4842;;;;
2022/12/31 13:10:23;;;;;;;8.4;1.9;;;;;;;17.16;53.01172;940.4913;;;;
2022/12/31 13:12:48;;;;;;;4.9;2.1;;;;;;;17.34;53.33496;940.4127;;;;
2022/12/31 13:15:16;;;;;;;7.3;2.4;;;;;;;17.26;53.08301;940.3622;;;;
2022/12/31 13:17:41;;;;;;;10.8;2.8;;;;;;;17.37;53.53613;940.488;;;;
2022/12/31 13:20:07;;;;;;;5;2.1;;;;;;;17.15;53.0459;940.5492;;;;
2022/12/31 13:22:31;;;;;;;5.3;2.7;;;;;;;17.09;53.4082;940.3972;;;;
2022/12/31 13:24:56;;;;;;;3.2;2.3;;;;;;;17.12;53.15918;940.4819;;;;
2022/12/31 13:27:21;;;;;;;4.3;1.9;;;;;;;16.99;52.77051;940.5259;;;;
2022/12/31 13:29:46;;;;;;;2.6;1.3;;;;;;;17.1;50.96582;940.4556;;;;
2022/12/31 13:32:12;;;;;;;2.6;1.6;;;;;;;17.19;52.10059;940.514;;;;
2022/12/31 13:34:37;;;;;;;2.9;1.4;;;;;;;16.94;51.29395;940.4895;;;;
2022/12/31 13:37:02;;;;;;;4.5;2.5;;;;;;;16.95;53.56641;940.4419;;;;
2022/12/31 13:39:27;;;;;;;5.4;2.5;;;;;;;16.88;52.72363;940.5303;;;;
2022/12/31 13:41:52;;;;;;;4.8;1.5;;;;;;;16.64;52.19824;940.4656;;;;
2022/12/31 13:44:18;;;;;;;10.3;3.3;;;;;;;16.54;52.60254;940.5298;;;;
2022/12/31 13:46:43;;;;;;;5.7;2.9;;;;;;;16.53;53.18066;940.5991;;;;
2022/12/31 13:49:09;;;;;;;10.3;3.4;;;;;;;16.6;53.32715;940.5051;;;;
2022/12/31 13:51:33;;;;;;;8.6;3.4;;;;;;;16.72;53.73535;940.5848;;;;
2022/12/31 13:53:59;;;;;;;5.7;2.8;;;;;;;16.52;53.9541;940.5895;;;;
2022/12/31 13:56:24;;;;;;;4.9;2.7;;;;;;;16.29;54.2832;940.5842;;;;
2022/12/31 13:58:52;;;;;;;11.1;4;;;;;;;16.21;55.29297;940.5877;;;;
2022/12/31 14:01:17;;;;;;;10.6;4.1;;;;;;;16.05;55.26074;940.5095;;;;
2022/12/31 14:03:42;;;;;;;12.8;4.2;;;;;;;16.03;55.06055;940.5178;;;;
2022/12/31 14:06:07;;;;;;;7.3;3.7;;;;;;;15.96;54.48633;940.6705;;;;
2022/12/31 14:08:32;;;;;;;21.6;6.4;;;;;;;15.75;57.44141;940.7047;;;;
2022/12/31 14:11:00;;;;;;;12.3;6.8;;;;;;;15.49;58.14648;940.5828;;;;
2022/12/31 14:13:26;;;;;;;11;6;;;;;;;15.26;58.19629;940.6495;;;;
2022/12/31 14:15:58;;;;;;;9.7;5.8;;;;;;;15.16;59.89063;940.6594;;;;
2022/12/31 14:18:23;;;;;;;11.2;6.3;;;;;;;15.14;60.27051;940.7036;;;;
2022/12/31 14:20:49;;;;;;;12.2;6.8;;;;;;;15.01;60.61914;940.7054;;;;
2022/12/31 14:23:14;;;;;;;20.3;10;;;;;;;14.7;61.32715;940.6916;;;;
2022/12/31 14:25:39;;;;;;;14.5;8.5;;;;;;;14.63;61.68555;940.6797;;;;
2022/12/31 14:28:05;;;;;;;19.7;11.3;;;;;;;14.61;62.35156;940.7156;;;;
2022/12/31 14:30:32;;;;;;;22.8;10.8;;;;;;;14.53;62.80078;940.6564;;;;
2022/12/31 14:33:00;;;;;;;20.1;9.7;;;;;;;14.47;63.21875;940.7471;;;;
2022/12/31 14:35:25;;;;;;;17.3;10.5;;;;;;;14.42;63.5918;940.7517;;;;
2022/12/31 14:37:51;;;;;;;14.7;8.8;;;;;;;14.42;64.05273;940.8166;;;;
2022/12/31 14:40:18;;;;;;;14.4;7.5;;;;;;;14.4;64.40625;940.8476;;;;
2022/12/31 14:42:48;;;;;;;14;9.1;;;;;;;14.15;65.31445;940.8354;;;;
2022/12/31 14:50:07;;;;;;;24;14.5;;;;;;;13.59;67.05664;940.8381;;;;
2022/12/31 14:52:35;;;;;;;15;9.5;;;;;;;13.54;66.38379;940.9172;;;;
2022/12/31 14:55:00;;;;;;;19.5;11.5;;;;;;;13.47;67.07324;940.8602;;;;
2022/12/31 14:57:25;;;;;;;21.5;12.7;;;;;;;13.4;67.62598;940.9294;;;;
2022/12/31 14:59:50;;;;;;;20.1;12.9;;;;;;;13.33;67.5918;940.9763;;;;
2022/12/31 15:02:15;;;;;;;17.3;11.3;;;;;;;13.3;67.77051;940.9698;;;;
2022/12/31 15:04:40;;;;;;;18.5;11.1;;;;;;;13.23;68.2207;941.0039;;;;
2022/12/31 15:07:08;;;;;;;19;11.4;;;;;;;13.23;68.02539;940.9872;;;;
2022/12/31 15:09:33;;;;;;;16.9;10;;;;;;;13.22;68.26563;941.0016;;;;
2022/12/31 15:11:59;;;;;;;15.4;10.8;;;;;;;13.1;68.57813;940.9309;;;;
2022/12/31 15:14:24;;;;;;;12.9;8.9;;;;;;;12.94;69.08105;941.0442;;;;
2022/12/31 15:16:49;;;;;;;15.7;10;;;;;;;12.79;69.93066;940.9457;;;;
2022/12/31 15:19:14;;;;;;;12.5;9.1;;;;;;;12.71;70.25977;940.9246;;;;
2022/12/31 15:21:39;;;;;;;9.1;6.6;;;;;;;12.48;70.09766;941.0499;;;;
2022/12/31 15:24:04;;;;;;;10.8;7.7;;;;;;;12.42;70.71973;941.0975;;;;
2022/12/31 15:26:30;;;;;;;14.1;9.9;;;;;;;12.33;71.33496;941.0533;;;;
2022/12/31 15:28:56;;;;;;;21;14.1;;;;;;;12.19;71.73535;941.0936;;;;
2022/12/31 15:31:21;;;;;;;17;10.9;;;;;;;12.15;71.62598;941.0924;;;;
2022/12/31 15:33:46;;;;;;;14.7;10.2;;;;;;;12.1;71.45898;941.0856;;;;